Aquashicola, PA

11:24 PM EDT on August 04, 2015 (GMT -0400)
Mahoning Mountain | | Change Station
CLOSE
Current Station
Personal Weather Station
Location: Lehighton, PA
Elevation: 689 ft
Nearby Weather Stations

Elev 689 ft 40.81 °N, 75.70 °W | Updated 4 minutes ago

Clear
Clear
61.4 °F
Feels Like 61.4 °F
N
0.0
Wind Variable Wind from WSW
Gusts 0.0 mph

Today
High -- | Low -- °F
--% Chance of Precip.
Yesterday
High -- | Low -- °F
Precip. -- in
6:02 AM 8:15 PM
Waning Gibbous, 71% visible
Pressure 29.92 in
Visibility 10.0 miles
Clouds Clear
Dew Point 59 °F
Humidity 93%
Rainfall 0.00 in
Snow Depth Not available.
UV 0.0 out of 12
Pollen 7.90 out of 12
Air Quality Not available.
Flu Activity Not available.
METAR KABE 050251Z 25005KT 10SM CLR 21/13 A2992 RMK AO2 SLP130 T02110128 50009

More Conditions Fewer Conditions

Pressure 29.92 in
Visibility 10.0 miles
Clouds Clear
Dew Point 59 °F
Humidity 93%
Rainfall 0.00 in
Snow Depth Not available.
UV 0.0 out of 12
Pollen 7.90 out of 12
Air Quality Not available.
Flu Activity Not available.
METAR KABE 050251Z 25005KT 10SM CLR 21/13 A2992 RMK AO2 SLP130 T02110128 50009

More Conditions Fewer Conditions

10-Day Weather Forecast

×

Almanac

Astronomy

Aug. 04, 2015 Rise Set
Actual Time
Civil Twilight
Nautical Twilight
Astronomical Twilight
Moon
Length of Visible Light
Length of Day
Tomorrow will be .
, % of the Moon is Illuminated

Today's Extremes

State Highs State Lows

Community

WunderPhotos

Upload Photos

1,844,088 photos uploaded!

WunderBlogs® & News

Nearby

Air Quality

  Air Quality AQ Index Pollutant
Not available.

Snow Depth

Station Depth Elevation

Earthquake Activity

City Distance Mag. Time & Date
Minimum magnitude displayed is 2.5.

Coastal Water Temperatures

Place Temperature

Stations

Nearby Weather Stations

Station Location Temp. Windchill Dew Point Humidity Wind Precip. Elev Updated Type